createdAt,value
2022-11-15T11:10:03.597Z,100380.60
2022-11-15T11:12:35.606Z,100388.40
2022-11-15T11:15:13.499Z,100379.20
2022-11-15T11:17:57.374Z,100380.60
2022-11-15T11:20:31.326Z,100384.20
2022-11-15T11:23:13.903Z,100378.20
2022-11-15T11:25:46.176Z,100372.40
2022-11-15T11:28:31.446Z,100374.20
2022-11-15T11:31:27.240Z,100371.00
2022-11-15T11:34:05.219Z,100366.40
2022-11-15T11:36:41.044Z,100357.60
2022-11-15T11:39:25.529Z,100354.40
2022-11-15T11:42:04.981Z,100342.20
2022-11-15T11:44:41.862Z,100342.60
2022-11-15T11:47:12.811Z,100341.40
2022-11-15T11:49:47.891Z,100337.00
2022-11-15T11:52:22.946Z,100338.00
2022-11-15T11:55:02.031Z,100335.00
2022-11-15T11:57:43.722Z,100329.40
2022-11-15T12:00:22.490Z,100326.40
2022-11-15T12:03:02.047Z,100323.00
2022-11-15T12:05:34.500Z,100318.40
2022-11-15T12:08:31.631Z,100319.20
2022-11-15T12:11:09.078Z,100317.80
2022-11-15T12:13:39.326Z,100316.40
2022-11-15T12:16:13.764Z,100313.60
2022-11-15T12:18:45.876Z,100317.60
2022-11-15T12:21:26.995Z,100309.80
2022-11-15T12:24:04.748Z,100304.80
2022-11-15T12:26:40.510Z,100300.00
2022-11-15T12:29:16.411Z,100308.40
2022-11-15T12:31:47.245Z,100314.00
2022-11-15T12:34:43.328Z,100303.00
2022-11-15T12:37:49.581Z,100299.40
2022-11-15T12:40:41.245Z,100294.80
2022-11-15T12:43:40.487Z,100285.00
2022-11-15T12:46:21.421Z,100276.40
2022-11-15T12:48:57.250Z,100280.40
2022-11-15T12:52:09.134Z,100285.80
2022-11-15T12:55:02.893Z,100274.40
2022-11-15T12:57:41.357Z,100277.00
2022-11-15T13:00:48.736Z,100284.00
2022-11-15T13:03:56.241Z,100279.00
2022-11-15T13:06:41.851Z,100282.80
2022-11-15T13:09:54.383Z,100280.20
2022-11-15T13:12:57.957Z,100281.80
2022-11-15T13:15:47.885Z,100269.80
2022-11-15T13:18:36.143Z,100269.00
2022-11-15T13:21:37.147Z,100263.40
2022-11-15T13:24:16.766Z,100256.80
2022-11-15T13:26:46.655Z,100260.40
2022-11-15T13:29:20.582Z,100254.00
2022-11-15T13:31:50.530Z,100247.40
2022-11-15T13:34:50.558Z,100253.40
2022-11-15T13:37:33.082Z,100251.80
2022-11-15T13:40:27.936Z,100252.40
2022-11-15T13:42:58.419Z,100261.20
2022-11-15T13:45:27.828Z,100247.40
2022-11-15T13:47:59.020Z,100247.00
2022-11-15T13:50:34.735Z,100248.80
2022-11-15T13:53:05.092Z,100243.20
2022-11-15T13:55:34.542Z,100239.80
2022-11-15T13:58:06.713Z,100237.60
2022-11-15T14:00:39.204Z,100241.00
2022-11-15T14:03:16.803Z,100239.80
2022-11-15T14:05:46.708Z,100238.20
2022-11-15T14:08:25.878Z,100239.40
2022-11-15T14:11:20.121Z,100230.60
2022-11-15T14:14:14.280Z,100233.00
2022-11-15T14:16:44.971Z,100231.00
2022-11-15T14:19:29.928Z,100232.80
2022-11-15T14:22:22.259Z,100227.60
2022-11-15T14:25:16.133Z,100219.40
2022-11-15T14:27:46.425Z,100213.80
2022-11-15T14:30:17.930Z,100214.40
2022-11-15T14:32:49.583Z,100215.20
2022-11-15T14:35:21.330Z,100209.60
2022-11-15T14:37:51.511Z,100212.00
2022-11-15T14:40:23.076Z,100223.60
2022-11-15T14:42:52.775Z,100221.00
2022-11-15T14:45:23.574Z,100224.80
2022-11-15T14:47:53.657Z,100223.80
2022-11-15T14:50:23.822Z,100234.60
2022-11-15T14:52:53.379Z,100225.60
2022-11-15T14:55:25.135Z,100220.40
2022-11-15T14:57:55.304Z,100216.20
2022-11-15T15:00:26.433Z,100218.60
2022-11-15T15:02:57.744Z,100216.00
2022-11-15T15:05:33.148Z,100218.20
2022-11-15T15:08:03.076Z,100211.40
2022-11-15T15:10:40.939Z,100215.80
2022-11-15T15:13:18.624Z,100218.60
2022-11-15T15:15:49.040Z,100209.80
2022-11-15T15:18:18.812Z,100212.00
2022-11-15T15:20:57.272Z,100205.60
2022-11-15T15:23:29.788Z,100202.80
2022-11-15T15:26:01.106Z,100199.20
2022-11-15T15:28:34.518Z,100194.60
2022-11-15T15:31:07.799Z,100198.40
2022-11-15T15:33:37.652Z,100194.00
2022-11-15T15:36:11.502Z,100197.20
2022-11-15T15:38:41.882Z,100196.80
2022-11-15T15:41:13.656Z,100197.80
2022-11-15T15:43:43.382Z,100206.00
2022-11-15T15:46:18.017Z,100200.40
2022-11-15T15:48:47.590Z,100202.80
2022-11-15T15:51:20.406Z,100201.20
2022-11-15T15:53:53.271Z,100196.40
2022-11-15T15:56:22.932Z,100194.20
2022-11-15T15:58:53.148Z,100193.80
2022-11-15T16:01:23.490Z,100189.40
2022-11-15T16:03:53.114Z,100182.20
2022-11-15T16:06:39.733Z,100180.00
2022-11-15T16:09:16.168Z,100173.40
2022-11-15T16:11:49.311Z,100171.00
2022-11-15T16:14:18.995Z,100176.60
2022-11-15T16:16:48.940Z,100172.80
2022-11-15T16:19:18.561Z,100164.40
2022-11-15T16:21:48.214Z,100165.00
2022-11-15T16:24:17.943Z,100170.40
2022-11-15T16:26:47.690Z,100163.80
2022-11-15T16:29:17.357Z,100168.40
2022-11-15T16:31:47.052Z,100171.80
2022-11-15T16:34:16.560Z,100171.20
2022-11-15T16:36:46.616Z,100173.80
2022-11-15T16:39:19.082Z,100174.00
2022-11-15T16:41:48.989Z,100179.40
2022-11-15T16:44:19.034Z,100179.80
2022-11-15T16:46:51.447Z,100171.60
2022-11-15T16:49:22.888Z,100172.00
2022-11-15T16:51:53.967Z,100171.20
2022-11-15T16:54:23.661Z,100171.60
2022-11-15T16:56:55.306Z,100177.20
2022-11-15T16:59:25.570Z,100173.20
2022-11-15T17:01:55.402Z,100175.20
2022-11-15T17:04:27.426Z,100170.40
2022-11-15T17:06:57.408Z,100167.40
2022-11-15T17:09:27.446Z,100178.40
2022-11-15T17:11:57.112Z,100182.20
2022-11-15T17:14:31.936Z,100177.40
2022-11-15T17:17:07.491Z,100167.20
2022-11-15T17:20:12.279Z,100166.80
2022-11-15T17:22:42.599Z,100165.40
2022-11-15T17:25:19.944Z,100162.00
2022-11-15T17:28:04.446Z,100163.40
2022-11-15T17:30:49.605Z,100164.80
2022-11-15T17:33:25.372Z,100165.60
2022-11-15T17:36:05.307Z,100161.60
2022-11-15T17:38:35.357Z,100161.20
2022-11-15T17:41:09.278Z,100169.80
2022-11-15T17:43:39.227Z,100171.60
2022-11-15T17:46:11.482Z,100170.40
2022-11-15T17:48:43.925Z,100163.20
2022-11-15T17:51:17.584Z,100161.20
2022-11-15T17:53:50.081Z,100155.40
2022-11-15T17:56:21.754Z,100157.80
2022-11-15T17:58:54.182Z,100139.00
2022-11-15T18:01:28.522Z,100138.20
2022-11-15T18:04:13.350Z,100143.20
2022-11-15T18:06:43.278Z,100135.20
2022-11-15T18:09:18.441Z,100137.40
2022-11-15T18:11:51.319Z,100149.80
2022-11-15T18:14:26.088Z,100144.00
2022-11-15T18:16:57.417Z,100142.60
2022-11-15T18:19:36.260Z,100142.40
2022-11-15T18:22:09.501Z,100136.40
2022-11-15T18:24:42.471Z,100138.80
2022-11-15T18:27:14.431Z,100141.00
2022-11-15T18:29:44.814Z,100135.00
2022-11-15T18:32:17.401Z,100128.60
2022-11-15T18:34:47.663Z,100132.60
2022-11-15T18:37:19.390Z,100136.00
2022-11-15T18:39:53.774Z,100130.20
2022-11-15T18:42:25.232Z,100137.00
2022-11-15T18:44:56.849Z,100137.00
2022-11-15T18:47:32.937Z,100136.40
2022-11-15T18:50:03.898Z,100136.40
2022-11-15T18:52:34.445Z,100136.40
2022-11-15T18:55:06.970Z,100138.60
2022-11-15T18:57:38.668Z,100141.60
2022-11-15T19:00:17.466Z,100140.00
2022-11-15T19:02:48.553Z,100143.00
2022-11-15T19:05:20.972Z,100138.00
2022-11-15T19:07:51.969Z,100132.20
2022-11-15T19:10:22.099Z,100128.20
2022-11-15T19:12:51.762Z,100125.00
2022-11-15T19:15:21.406Z,100130.80
2022-11-15T19:17:51.568Z,100123.60
2022-11-15T19:20:21.479Z,100128.40
2022-11-15T19:22:51.816Z,100130.20
2022-11-15T19:25:23.038Z,100132.60
2022-11-15T19:28:00.765Z,100128.60
2022-11-15T19:30:31.020Z,100132.00
2022-11-15T19:33:01.267Z,100131.00
2022-11-15T19:35:31.948Z,100124.20
2022-11-15T19:38:04.529Z,100128.60
2022-11-15T19:40:35.800Z,100134.00
2022-11-15T19:43:05.641Z,100132.00
2022-11-15T19:45:36.068Z,100129.40
2022-11-15T19:48:08.888Z,100123.20
2022-11-15T19:50:39.945Z,100120.80
2022-11-15T19:53:09.701Z,100112.20
2022-11-15T19:55:39.960Z,100113.40
2022-11-15T19:58:11.441Z,100110.20
2022-11-15T20:00:42.470Z,100101.80
2022-11-15T20:03:11.958Z,100109.60
2022-11-15T20:05:42.050Z,100113.20
2022-11-15T20:08:12.635Z,100116.00
2022-11-15T20:11:06.424Z,100113.00
2022-11-15T20:13:36.416Z,100105.40
2022-11-15T20:16:07.650Z,100103.00
2022-11-15T20:18:37.545Z,100097.20
2022-11-15T20:21:08.561Z,100104.20
2022-11-15T20:23:38.527Z,100097.40
2022-11-15T20:26:10.520Z,100101.40
2022-11-15T20:28:40.665Z,100096.80
2022-11-15T20:31:10.863Z,100093.00
2022-11-15T20:33:40.511Z,100105.00
2022-11-15T20:36:13.473Z,100109.00
2022-11-15T20:38:43.771Z,100110.60
2022-11-15T20:41:13.639Z,100111.00
2022-11-15T20:43:43.331Z,100103.60
2022-11-15T20:46:13.281Z,100097.00
2022-11-15T20:48:43.353Z,100100.20
2022-11-15T20:51:14.618Z,100105.60
2022-11-15T20:53:44.729Z,100108.80
2022-11-15T20:56:17.015Z,100099.40
2022-11-15T20:58:46.997Z,100101.60
2022-11-15T21:01:19.363Z,100091.60
2022-11-15T21:03:49.025Z,100093.60
2022-11-15T21:06:26.296Z,100094.60
2022-11-15T21:09:18.872Z,100091.60
2022-11-15T21:12:09.858Z,100090.40
2022-11-15T21:14:39.590Z,100099.80
2022-11-15T21:17:09.367Z,100092.40
2022-11-15T21:19:39.117Z,100096.20
2022-11-15T21:22:09.324Z,100090.60
2022-11-15T21:24:38.936Z,100096.80
2022-11-15T21:27:09.109Z,100097.00
2022-11-15T21:29:40.240Z,100089.00
2022-11-15T21:32:11.014Z,100085.00
2022-11-15T21:34:40.740Z,100084.40
2022-11-15T21:37:10.530Z,100072.40
2022-11-15T21:39:40.861Z,100078.40
2022-11-15T21:42:10.708Z,100075.00
2022-11-15T21:44:40.311Z,100072.60
2022-11-15T21:47:10.036Z,100068.60
2022-11-15T21:49:40.780Z,100063.20
2022-11-15T21:52:10.640Z,100068.80
2022-11-15T21:54:44.078Z,100073.00
2022-11-15T21:57:14.005Z,100061.80
2022-11-15T21:59:58.751Z,100052.60
2022-11-15T22:02:29.798Z,100050.40
2022-11-15T22:05:00.583Z,100043.20
2022-11-15T22:07:32.680Z,100048.40
2022-11-15T22:10:03.282Z,100049.60
2022-11-15T22:12:35.218Z,100050.60
2022-11-15T22:15:07.919Z,100050.60
2022-11-15T22:17:57.117Z,100044.40
2022-11-15T22:20:45.502Z,100040.00
2022-11-15T22:23:16.489Z,100035.00
2022-11-15T22:25:46.758Z,100033.00
2022-11-15T22:28:17.867Z,100031.60
2022-11-15T22:30:48.911Z,100025.80
2022-11-15T22:33:21.446Z,100015.20
2022-11-15T22:35:51.817Z,100015.20
2022-11-15T22:38:22.170Z,100004.60
2022-11-15T22:40:52.544Z,99998.20
2022-11-15T22:43:24.438Z,99998.00
2022-11-15T22:45:58.149Z,99998.20
2022-11-15T22:48:30.082Z,100002.80
2022-11-15T22:51:00.182Z,99992.60
2022-11-15T22:53:30.660Z,99995.80
2022-11-15T22:56:02.505Z,99989.80
2022-11-15T22:58:33.894Z,99991.80
2022-11-15T23:01:05.573Z,99985.00
2022-11-15T23:03:36.144Z,99985.40
2022-11-15T23:06:08.348Z,99979.60
2022-11-15T23:08:38.893Z,99973.20
2022-11-15T23:11:29.854Z,99972.80
2022-11-15T23:14:00.154Z,99976.00
2022-11-15T23:16:34.830Z,99979.60
2022-11-15T23:19:07.306Z,99983.20
2022-11-15T23:21:59.863Z,99986.00
2022-11-15T23:24:30.193Z,99984.20
2022-11-15T23:27:02.124Z,99987.80
2022-11-15T23:29:32.576Z,99978.60
2022-11-15T23:32:32.875Z,99980.40
2022-11-15T23:35:03.181Z,99981.80
2022-11-15T23:37:33.760Z,99985.40
2022-11-15T23:40:04.938Z,99985.40
2022-11-15T23:42:35.084Z,99985.40
2022-11-15T23:45:06.809Z,99981.40
2022-11-15T23:47:36.849Z,99981.60
2022-11-15T23:50:09.676Z,99981.20
2022-11-15T23:52:39.679Z,99975.40
2022-11-15T23:55:11.294Z,99974.80
2022-11-15T23:57:41.429Z,99973.40
